createdAt,value
2017-02-26T00:00:24.177Z,70
2017-02-26T00:01:24.180Z,70.1
2017-02-26T00:02:24.156Z,70.38
2017-02-26T00:03:24.145Z,69.62
2017-02-26T00:04:24.136Z,69.81
2017-02-26T00:05:23.739Z,70.1
2017-02-26T00:06:24.115Z,69.91
2017-02-26T00:07:23.719Z,69.91
2017-02-26T00:08:24.093Z,70.1
2017-02-26T00:09:24.093Z,69.62
2017-02-26T00:10:24.072Z,69.62
2017-02-26T00:11:24.060Z,69.62
2017-02-26T00:12:24.051Z,69.62
2017-02-26T00:13:24.038Z,69.91
2017-02-26T00:14:24.030Z,69.34
2017-02-26T00:15:24.023Z,69.15
2017-02-26T00:16:23.621Z,69.53
2017-02-26T00:17:23.996Z,69.43
2017-02-26T00:18:23.608Z,69.71
2017-02-26T00:19:23.988Z,69.24
2017-02-26T00:20:23.965Z,69.53
2017-02-26T00:21:23.967Z,69.34
2017-02-26T00:22:23.952Z,69.43
2017-02-26T00:23:23.932Z,69.53
2017-02-26T00:24:23.967Z,69.43
2017-02-26T00:25:23.921Z,69.34
2017-02-26T00:26:23.904Z,68.77
2017-02-26T00:27:23.891Z,68.86
2017-02-26T00:28:23.882Z,68.86
2017-02-26T00:29:23.871Z,68.48
2017-02-26T00:30:23.473Z,68.67
2017-02-26T00:31:23.847Z,69.15
2017-02-26T00:32:23.839Z,68.86
2017-02-26T00:33:23.831Z,68.58
2017-02-26T00:34:23.825Z,68.67
2017-02-26T00:35:23.809Z,68.67
2017-02-26T00:36:23.799Z,68.19
2017-02-26T00:37:23.400Z,68.52
2017-02-26T00:38:23.777Z,68.67
2017-02-26T00:39:23.766Z,68.96
2017-02-26T00:40:23.763Z,68.48
2017-02-26T00:41:23.744Z,68.67
2017-02-26T00:42:23.741Z,68.23
2017-02-26T00:43:23.723Z,68.13
2017-02-26T00:44:23.714Z,68.04
2017-02-26T00:45:23.702Z,68.52
2017-02-26T00:46:23.693Z,68.33
2017-02-26T00:47:23.684Z,68.42
2017-02-26T00:48:23.670Z,67.94
2017-02-26T00:49:23.660Z,67.85
2017-02-26T00:50:23.657Z,67.66
2017-02-26T00:51:23.641Z,67.57
2017-02-26T00:52:23.253Z,67.85
2017-02-26T00:53:23.621Z,67.76
2017-02-26T00:54:23.608Z,67.85
2017-02-26T00:55:23.598Z,67.38
2017-02-26T00:56:23.204Z,67.28
2017-02-26T00:57:23.578Z,67
2017-02-26T00:58:23.568Z,67.19
2017-02-26T00:59:23.877Z,67
2017-02-26T01:00:23.548Z,66.9
2017-02-26T01:01:23.152Z,66.33
2017-02-26T01:02:23.528Z,66.33
2017-02-26T01:03:23.516Z,66.52
2017-02-26T01:04:23.506Z,67
2017-02-26T01:05:23.507Z,66.61
2017-02-26T01:06:23.485Z,66.8
2017-02-26T01:07:23.490Z,66.9
2017-02-26T01:08:23.476Z,66.8
2017-02-26T01:09:23.070Z,66.8
2017-02-26T01:10:23.443Z,66.52
2017-02-26T01:11:23.435Z,66.71
2017-02-26T01:12:23.037Z,67.09
2017-02-26T01:13:23.426Z,66.33
2017-02-26T01:14:23.404Z,66.14
2017-02-26T01:15:23.407Z,66.24
2017-02-26T01:16:23.391Z,66.61
2017-02-26T01:17:23.379Z,65.95
2017-02-26T01:18:23.363Z,66.14
2017-02-26T01:19:23.356Z,65.76
2017-02-26T01:20:23.344Z,66.33
2017-02-26T01:21:23.331Z,65.76
2017-02-26T01:22:23.322Z,65.38
2017-02-26T01:23:23.319Z,65.86
2017-02-26T01:24:23.300Z,65.86
2017-02-26T01:25:23.296Z,65.67
2017-02-26T01:26:23.281Z,65.19
2017-02-26T01:27:23.272Z,64.94
2017-02-26T01:28:23.260Z,65.13
2017-02-26T01:29:23.257Z,64.9
2017-02-26T01:30:23.241Z,65.51
2017-02-26T01:31:23.230Z,64.9
2017-02-26T01:32:23.227Z,65.28
2017-02-26T01:33:22.822Z,65.09
2017-02-26T01:34:22.814Z,65.38
2017-02-26T01:35:23.189Z,65.32
2017-02-26T01:36:23.188Z,64.56
2017-02-26T01:37:23.167Z,64.94
2017-02-26T01:38:23.160Z,64.81
2017-02-26T01:39:23.149Z,64.65
2017-02-26T01:40:23.145Z,64.84
2017-02-26T01:41:23.131Z,64.84
2017-02-26T01:42:23.126Z,63.99
2017-02-26T01:43:23.117Z,63.99
2017-02-26T01:44:23.100Z,64.37
2017-02-26T01:45:23.090Z,64.18
2017-02-26T01:46:23.081Z,63.89
2017-02-26T01:47:23.071Z,64.18
2017-02-26T01:48:23.060Z,63.7
2017-02-26T01:49:23.051Z,63.79
2017-02-26T01:50:23.047Z,63.99
2017-02-26T01:51:23.053Z,63.89
2017-02-26T01:52:23.023Z,63.99
2017-02-26T01:53:23.010Z,63.32
2017-02-26T01:54:23.050Z,63.7
2017-02-26T01:55:22.997Z,63.51
2017-02-26T01:56:22.980Z,63.42
2017-02-26T01:57:22.973Z,63.42
2017-02-26T01:58:22.959Z,63.32
2017-02-26T01:59:22.951Z,63.42
2017-02-26T02:00:22.951Z,63.04
2017-02-26T02:01:22.545Z,63.13
2017-02-26T02:02:22.920Z,63.32
2017-02-26T02:03:22.914Z,63.42
2017-02-26T02:04:22.899Z,63.13
2017-02-26T02:05:22.895Z,63.23
2017-02-26T02:06:22.878Z,62.94
2017-02-26T02:07:22.875Z,63.23
2017-02-26T02:08:22.861Z,63.13
2017-02-26T02:09:22.853Z,63.32
2017-02-26T02:10:22.841Z,63.42
2017-02-26T02:11:22.833Z,62.85
2017-02-26T02:12:22.820Z,62.85
2017-02-26T02:13:22.810Z,63.13
2017-02-26T02:14:22.810Z,62.85
2017-02-26T02:15:22.792Z,62.46
2017-02-26T02:16:22.778Z,62.65
2017-02-26T02:17:22.771Z,62.75
2017-02-26T02:18:22.759Z,62.46
2017-02-26T02:19:22.750Z,62.56
2017-02-26T02:20:22.743Z,62.65
2017-02-26T02:21:22.730Z,62.75
2017-02-26T02:22:22.725Z,63.04
2017-02-26T02:23:22.711Z,62.94
2017-02-26T02:24:22.712Z,62.65
2017-02-26T02:25:22.692Z,62.94
2017-02-26T02:26:22.682Z,62.56
2017-02-26T02:27:22.294Z,62.65
2017-02-26T02:28:22.273Z,62.85
2017-02-26T02:29:22.652Z,62.85
2017-02-26T02:30:22.643Z,62.85
2017-02-26T02:31:22.247Z,62.56
2017-02-26T02:32:22.238Z,62.46
2017-02-26T02:33:22.226Z,62.18
2017-02-26T02:34:22.215Z,62.18
2017-02-26T02:35:22.595Z,62.37
2017-02-26T02:36:22.196Z,62.37
2017-02-26T02:37:22.577Z,62.56
2017-02-26T02:38:22.184Z,62.65
2017-02-26T02:39:22.551Z,62.37
2017-02-26T02:40:22.157Z,62.65
2017-02-26T02:41:22.532Z,62.37
2017-02-26T02:42:22.524Z,62.46
2017-02-26T02:43:22.521Z,62.18
2017-02-26T02:44:22.515Z,62.18
2017-02-26T02:45:22.491Z,62.37
2017-02-26T02:46:22.482Z,62.08
2017-02-26T02:47:22.479Z,62.46
2017-02-26T02:48:22.477Z,62.75
2017-02-26T02:49:22.458Z,62.65
2017-02-26T02:50:22.444Z,62.37
2017-02-26T02:51:22.435Z,62.08
2017-02-26T02:52:22.437Z,62.18
2017-02-26T02:53:22.419Z,62.37
2017-02-26T02:54:22.407Z,62.08
2017-02-26T02:55:22.395Z,61.99
2017-02-26T02:56:22.387Z,61.99
2017-02-26T02:57:22.375Z,62.75
2017-02-26T02:58:22.367Z,62.08
2017-02-26T02:59:22.357Z,61.61
2017-02-26T03:00:22.349Z,61.52
2017-02-26T03:01:22.335Z,61.8
2017-02-26T03:02:22.328Z,62.18
2017-02-26T03:03:22.316Z,62.27
2017-02-26T03:04:22.306Z,62.18
2017-02-26T03:05:22.296Z,62.37
2017-02-26T03:06:22.287Z,61.52
2017-02-26T03:07:22.276Z,61.99
2017-02-26T03:08:22.268Z,61.71
2017-02-26T03:09:22.266Z,61.61
2017-02-26T03:10:22.248Z,61.52
2017-02-26T03:11:22.239Z,61.52
2017-02-26T03:12:22.227Z,61.61
2017-02-26T03:13:22.220Z,61.52
2017-02-26T03:14:22.230Z,61.32
2017-02-26T03:15:22.199Z,61.42
2017-02-26T03:16:22.192Z,61.52
2017-02-26T03:17:22.179Z,61.23
2017-02-26T03:18:22.173Z,61.61
2017-02-26T03:19:22.158Z,61.32
2017-02-26T03:20:22.150Z,61.52
2017-02-26T03:21:22.140Z,61.13
2017-02-26T03:22:22.144Z,61.32
2017-02-26T03:23:22.122Z,61.13
2017-02-26T03:24:22.111Z,61.32
2017-02-26T03:25:22.102Z,61.23
2017-02-26T03:26:22.092Z,61.13
2017-02-26T03:27:22.082Z,61.04
2017-02-26T03:28:22.078Z,61.23
2017-02-26T03:29:22.065Z,61.13
2017-02-26T03:30:22.064Z,61.04
2017-02-26T03:31:22.042Z,60.94
2017-02-26T03:32:22.038Z,61.13
2017-02-26T03:33:22.032Z,60.94
2017-02-26T03:34:22.014Z,61.13
2017-02-26T03:35:22.011Z,61.04
2017-02-26T03:36:21.994Z,61.23
2017-02-26T03:37:21.984Z,61.32
2017-02-26T03:38:21.973Z,61.23
2017-02-26T03:39:21.965Z,61.13
2017-02-26T03:40:21.951Z,61.13
2017-02-26T03:41:21.957Z,61.42
2017-02-26T03:42:21.936Z,61.32
2017-02-26T03:43:21.546Z,60.75
2017-02-26T03:44:21.916Z,60.47
2017-02-26T03:45:21.904Z,60.66
2017-02-26T03:46:21.896Z,60.47
2017-02-26T03:47:21.885Z,60.57
2017-02-26T03:48:21.876Z,60.66
2017-02-26T03:49:21.878Z,60.28
2017-02-26T03:50:21.857Z,60.66
2017-02-26T03:51:21.846Z,60.94
2017-02-26T03:52:21.852Z,60.47
2017-02-26T03:53:21.827Z,60.66
2017-02-26T03:54:21.827Z,60.09
2017-02-26T03:55:21.810Z,60.75
2017-02-26T03:56:21.798Z,60.85
2017-02-26T03:57:21.789Z,60.09
2017-02-26T03:58:21.780Z,60.09
2017-02-26T03:59:21.769Z,60.38
2017-02-26T04:00:21.775Z,59.99
2017-02-26T04:01:21.753Z,60.09
2017-02-26T04:02:21.758Z,59.99
2017-02-26T04:03:21.732Z,60.09
2017-02-26T04:04:21.727Z,59.99
2017-02-26T04:05:21.727Z,59.99
2017-02-26T04:06:21.735Z,60.28
2017-02-26T04:07:21.700Z,59.99
2017-02-26T04:08:21.696Z,60.09
2017-02-26T04:09:21.672Z,60.18
2017-02-26T04:10:21.663Z,60.75
2017-02-26T04:11:21.656Z,60.09
2017-02-26T04:12:21.643Z,60.38
2017-02-26T04:13:21.633Z,60.18
2017-02-26T04:14:21.636Z,60.57
2017-02-26T04:15:21.630Z,60.75
2017-02-26T04:16:21.603Z,60.66
2017-02-26T04:17:21.595Z,60.85
2017-02-26T04:18:21.586Z,60.66
2017-02-26T04:19:21.578Z,59.99
2017-02-26T04:20:21.575Z,60.28
2017-02-26T04:21:21.554Z,60.28
2017-02-26T04:22:21.546Z,60.28
2017-02-26T04:23:21.538Z,60.09
2017-02-26T04:24:21.527Z,60.09
2017-02-26T04:25:21.518Z,59.8
2017-02-26T04:26:21.512Z,59.61
2017-02-26T04:27:21.499Z,59.52
2017-02-26T04:28:21.498Z,59.99
2017-02-26T04:29:21.478Z,59.99
2017-02-26T04:30:21.476Z,60.09
2017-02-26T04:31:21.461Z,59.99
2017-02-26T04:32:21.453Z,60.09
2017-02-26T04:33:21.490Z,60.02
2017-02-26T04:34:21.431Z,59.71
2017-02-26T04:35:21.685Z,59.05
2017-02-26T04:36:21.413Z,59.42
2017-02-26T04:37:21.401Z,59.61
2017-02-26T04:38:21.392Z,59.8
2017-02-26T04:39:21.384Z,59.61
2017-02-26T04:40:21.394Z,59.42
2017-02-26T04:41:21.363Z,59.23
2017-02-26T04:42:21.355Z,59.61
2017-02-26T04:43:21.357Z,59.99
2017-02-26T04:44:21.336Z,59.42
2017-02-26T04:45:21.325Z,59.45
2017-02-26T04:46:21.319Z,59.61
2017-02-26T04:47:21.312Z,59.52
2017-02-26T04:48:21.300Z,59.71
2017-02-26T04:49:21.286Z,59.33
2017-02-26T04:50:21.277Z,59.52
2017-02-26T04:51:21.269Z,59.71
2017-02-26T04:52:20.875Z,59.99
2017-02-26T04:53:21.250Z,59.8
2017-02-26T04:54:21.238Z,59.61
2017-02-26T04:55:21.242Z,59.55
2017-02-26T04:56:21.219Z,59.93
2017-02-26T04:57:21.209Z,59.8
2017-02-26T04:58:21.201Z,59.99
2017-02-26T04:59:21.197Z,59.8
2017-02-26T05:00:21.195Z,59.52
2017-02-26T05:01:21.170Z,59.55
2017-02-26T05:02:21.163Z,59.71
2017-02-26T05:03:21.153Z,59.61
2017-02-26T05:04:21.142Z,59.8
2017-02-26T05:05:21.134Z,60.75
2017-02-26T05:06:21.125Z,60.75
2017-02-26T05:07:21.114Z,61.32
2017-02-26T05:08:21.103Z,61.99
2017-02-26T05:09:21.111Z,62.65
2017-02-26T05:10:21.085Z,63.42
2017-02-26T05:11:21.075Z,63.6
2017-02-26T05:12:21.066Z,64.27
2017-02-26T05:13:21.071Z,65.32
2017-02-26T05:14:21.052Z,66.36
2017-02-26T05:15:21.042Z,66.74
2017-02-26T05:16:21.034Z,67.22
2017-02-26T05:17:21.029Z,67.88
2017-02-26T05:18:21.018Z,68.74
2017-02-26T05:19:20.998Z,69.69
2017-02-26T05:20:20.601Z,69.88
2017-02-26T05:21:20.976Z,70.17
2017-02-26T05:22:20.967Z,69.88
2017-02-26T05:23:20.958Z,70.26
2017-02-26T05:24:20.949Z,71.02
2017-02-26T05:25:20.556Z,71.31
2017-02-26T05:26:20.929Z,71.41
2017-02-26T05:27:20.919Z,69.98
2017-02-26T05:28:20.910Z,69.79
2017-02-26T05:29:20.901Z,70.07
2017-02-26T05:30:20.895Z,70.42
2017-02-26T05:31:20.887Z,70.7
2017-02-26T05:32:20.875Z,69.41
2017-02-26T05:33:20.478Z,68.9
2017-02-26T05:34:20.851Z,68.9
2017-02-26T05:35:20.840Z,68.71
2017-02-26T05:36:20.836Z,68.71
2017-02-26T05:37:20.451Z,68.8
2017-02-26T05:38:20.425Z,68.61
2017-02-26T05:39:20.424Z,68.23
2017-02-26T05:40:20.792Z,68.23
2017-02-26T05:41:20.394Z,68.17
2017-02-26T05:42:20.770Z,67.57
2017-02-26T05:43:20.375Z,68.36
2017-02-26T05:44:20.362Z,68.71
2017-02-26T05:45:20.749Z,68.27
2017-02-26T05:46:20.729Z,68.42
2017-02-26T05:47:20.721Z,68.27
2017-02-26T05:48:20.324Z,68.27
2017-02-26T05:49:20.700Z,68.55
2017-02-26T05:50:20.303Z,68.84
2017-02-26T05:51:20.293Z,68.17
2017-02-26T05:52:20.667Z,67.98
2017-02-26T05:53:20.662Z,68.46
2017-02-26T05:54:20.265Z,68.07
2017-02-26T05:55:20.252Z,68.74
2017-02-26T05:56:20.630Z,68.36
2017-02-26T05:57:20.629Z,68.46
2017-02-26T05:58:20.610Z,68.55
2017-02-26T05:59:20.602Z,68.46
2017-02-26T06:00:20.590Z,68.36
2017-02-26T06:01:20.583Z,67.6
2017-02-26T06:02:20.583Z,67.98
2017-02-26T06:03:20.561Z,67.98
2017-02-26T06:04:20.551Z,67.6
2017-02-26T06:05:20.542Z,67.88
2017-02-26T06:06:20.540Z,67.79
2017-02-26T06:07:20.142Z,67.79
2017-02-26T06:08:20.512Z,67.5
2017-02-26T06:09:20.513Z,67.41
2017-02-26T06:10:20.494Z,67.5
2017-02-26T06:11:20.098Z,67.03
2017-02-26T06:12:20.472Z,67.69
2017-02-26T06:13:20.467Z,66.84
2017-02-26T06:14:20.451Z,67.13
2017-02-26T06:15:20.448Z,66.74
2017-02-26T06:16:20.433Z,66.84
2017-02-26T06:17:20.427Z,66.94
2017-02-26T06:18:20.425Z,67.03
2017-02-26T06:19:20.416Z,67.03
2017-02-26T06:20:20.404Z,66.17
2017-02-26T06:21:20.396Z,66.55
2017-02-26T06:22:20.373Z,66.46
2017-02-26T06:23:20.363Z,66.17
2017-02-26T06:24:20.353Z,66.65
2017-02-26T06:25:20.352Z,67.22
2017-02-26T06:26:20.334Z,67.03
2017-02-26T06:27:20.327Z,66.08
2017-02-26T06:28:20.316Z,66.46
2017-02-26T06:29:20.320Z,66.65
2017-02-26T06:30:20.333Z,66.08
2017-02-26T06:31:20.298Z,66.65
2017-02-26T06:32:20.274Z,65.51
2017-02-26T06:33:20.275Z,65.6
2017-02-26T06:34:20.254Z,65.6
2017-02-26T06:35:20.249Z,65.7
2017-02-26T06:36:20.248Z,65.32
2017-02-26T06:37:20.228Z,65.22
2017-02-26T06:38:20.215Z,65.51
2017-02-26T06:39:20.205Z,65.13
2017-02-26T06:40:20.197Z,65.22
2017-02-26T06:41:20.188Z,65.32
2017-02-26T06:42:20.175Z,64.65
2017-02-26T06:43:20.173Z,64.75
2017-02-26T06:44:20.157Z,64.84
2017-02-26T06:45:20.148Z,64.94
2017-02-26T06:46:20.144Z,64.37
2017-02-26T06:47:19.748Z,63.7
2017-02-26T06:48:20.121Z,63.79
2017-02-26T06:49:20.109Z,64.4
2017-02-26T06:50:20.100Z,63.6
2017-02-26T06:51:20.089Z,63.13
2017-02-26T06:52:20.088Z,63.42
2017-02-26T06:53:20.075Z,63.89
2017-02-26T06:54:20.058Z,63.23
2017-02-26T06:55:20.054Z,63.6
2017-02-26T06:56:20.044Z,63.73
2017-02-26T06:57:19.646Z,63.26
2017-02-26T06:58:20.023Z,63.35
2017-02-26T06:59:20.024Z,62.88
2017-02-26T07:00:20.004Z,63.17
2017-02-26T07:01:19.993Z,63.17
2017-02-26T07:02:19.983Z,63.07
2017-02-26T07:03:19.982Z,63.17
2017-02-26T07:04:19.594Z,63.17
2017-02-26T07:05:19.574Z,62.97
2017-02-26T07:06:19.947Z,63.07
2017-02-26T07:07:19.936Z,63.07
2017-02-26T07:08:19.934Z,63.17
2017-02-26T07:09:19.918Z,62.69
2017-02-26T07:10:19.531Z,62.69
2017-02-26T07:11:19.901Z,62.97
2017-02-26T07:12:19.889Z,62.97
2017-02-26T07:13:19.494Z,62.69
2017-02-26T07:14:19.484Z,62.4
2017-02-26T07:15:19.860Z,62.49
2017-02-26T07:16:19.866Z,62.4
2017-02-26T07:17:19.842Z,62.49
2017-02-26T07:18:19.451Z,62.4
2017-02-26T07:19:19.461Z,62.78
2017-02-26T07:20:19.864Z,62.69
2017-02-26T07:21:19.419Z,62.69
2017-02-26T07:22:19.798Z,62.49
2017-02-26T07:23:19.792Z,62.49
2017-02-26T07:24:19.780Z,62.78
2017-02-26T07:25:19.767Z,62.78
2017-02-26T07:26:19.766Z,63.35
2017-02-26T07:27:19.750Z,63.26
2017-02-26T07:28:19.354Z,63.64
2017-02-26T07:29:19.748Z,63.83
2017-02-26T07:30:19.722Z,64.31
2017-02-26T07:31:19.713Z,64.87
2017-02-26T07:32:19.704Z,64.5
2017-02-26T07:33:19.694Z,65.45
2017-02-26T07:34:19.685Z,65.16
2017-02-26T07:35:19.683Z,65.35
2017-02-26T07:36:19.671Z,65.54
2017-02-26T07:37:19.660Z,65.06
2017-02-26T07:38:19.651Z,65.25
2017-02-26T07:39:19.642Z,66.24
2017-02-26T07:40:19.631Z,66.62
2017-02-26T07:41:19.623Z,66.59
2017-02-26T07:42:19.614Z,66.81
2017-02-26T07:43:19.611Z,66.62
2017-02-26T07:44:19.596Z,67.73
2017-02-26T07:45:19.588Z,67.54
2017-02-26T07:46:19.580Z,67.95
2017-02-26T07:47:19.569Z,67.95
2017-02-26T07:48:19.573Z,68.05
2017-02-26T07:49:19.550Z,67.86
2017-02-26T07:50:19.540Z,68.49
2017-02-26T07:51:19.532Z,68.01
2017-02-26T07:52:19.532Z,67.95
2017-02-26T07:53:19.513Z,68.3
2017-02-26T07:54:19.505Z,68.59
2017-02-26T07:55:19.495Z,68.87
2017-02-26T07:56:19.494Z,69.44
2017-02-26T07:57:19.489Z,69.25
2017-02-26T07:58:19.477Z,69.44
2017-02-26T07:59:19.459Z,70.2
2017-02-26T08:00:19.453Z,70.3
2017-02-26T08:01:19.445Z,70.97
2017-02-26T08:02:19.443Z,70.68
2017-02-26T08:03:19.423Z,70.3
2017-02-26T08:04:19.414Z,71.15
2017-02-26T08:05:19.407Z,71.15
2017-02-26T08:06:19.398Z,71.15
2017-02-26T08:07:19.390Z,70.58
2017-02-26T08:08:19.378Z,70.58
2017-02-26T08:09:19.373Z,71.15
2017-02-26T08:10:19.364Z,71.06
2017-02-26T08:11:19.351Z,70.97
2017-02-26T08:12:19.345Z,71.15
2017-02-26T08:13:19.335Z,71.44
2017-02-26T08:14:19.326Z,71.82
2017-02-26T08:15:19.332Z,71.25
2017-02-26T08:16:18.923Z,71.91
2017-02-26T08:17:19.297Z,72.42
2017-02-26T08:18:19.289Z,72.62
2017-02-26T08:19:19.281Z,72.42
2017-02-26T08:20:19.268Z,71.57
2017-02-26T08:21:19.261Z,71.28
2017-02-26T08:22:19.254Z,71.57
2017-02-26T08:23:19.252Z,71.19
2017-02-26T08:24:19.237Z,71.09
2017-02-26T08:25:19.228Z,71.38
2017-02-26T08:26:19.218Z,70.62
2017-02-26T08:27:19.222Z,70.9
2017-02-26T08:28:19.201Z,71.19
2017-02-26T08:29:19.199Z,71.09
2017-02-26T08:30:19.184Z,70.62
2017-02-26T08:31:19.177Z,70.72
2017-02-26T08:32:19.168Z,71
2017-02-26T08:33:19.166Z,71.47
2017-02-26T08:34:19.152Z,71.86
2017-02-26T08:35:19.156Z,71.57
2017-02-26T08:36:19.142Z,72.08
2017-02-26T08:37:19.125Z,71.51
2017-02-26T08:38:19.119Z,71.42
2017-02-26T08:39:19.109Z,71.61
2017-02-26T08:40:19.102Z,71.03
2017-02-26T08:41:19.092Z,71.8
2017-02-26T08:42:19.085Z,71.42
2017-02-26T08:43:19.075Z,71.13
2017-02-26T08:44:19.067Z,71.03
2017-02-26T08:45:19.059Z,70.94
2017-02-26T08:46:19.062Z,71.13
2017-02-26T08:47:19.045Z,71.42
2017-02-26T08:48:18.658Z,71.13
2017-02-26T08:49:19.028Z,71.7
2017-02-26T08:50:19.020Z,71.7
2017-02-26T08:51:19.028Z,74.56
2017-02-26T08:52:19.003Z,77.22
2017-02-26T08:53:18.609Z,79.03
2017-02-26T08:54:18.987Z,80.55
2017-02-26T08:55:18.988Z,79.89
2017-02-26T08:56:18.970Z,78.08
2017-02-26T08:57:18.964Z,75.79
2017-02-26T08:58:18.960Z,75.89
2017-02-26T08:59:18.962Z,75.13
2017-02-26T09:00:18.947Z,75.51
2017-02-26T09:01:18.940Z,75.51
2017-02-26T09:02:18.921Z,74.75
2017-02-26T09:03:18.916Z,74.56
2017-02-26T09:04:18.911Z,74.08
2017-02-26T09:05:18.900Z,73.99
2017-02-26T09:06:18.890Z,72.88
2017-02-26T09:07:18.895Z,72.5
2017-02-26T09:08:18.875Z,72.69
2017-02-26T09:09:18.870Z,72.21
2017-02-26T09:10:18.863Z,71.83
2017-02-26T09:11:18.859Z,69.74
2017-02-26T09:12:18.855Z,69.54
2017-02-26T09:13:18.841Z,69.83
2017-02-26T09:14:18.863Z,68.4
2017-02-26T09:15:18.828Z,69.35
2017-02-26T09:16:18.831Z,68.5
2017-02-26T09:17:18.808Z,68.88
2017-02-26T09:18:18.803Z,68.5
2017-02-26T09:19:18.815Z,68.69
2017-02-26T09:20:18.797Z,68.88
2017-02-26T09:21:18.779Z,69.35
2017-02-26T09:22:18.772Z,69.48
2017-02-26T09:23:18.780Z,68.63
2017-02-26T09:24:18.758Z,68.82
2017-02-26T09:25:18.769Z,68.44
2017-02-26T09:26:18.747Z,67.83
2017-02-26T09:27:18.739Z,68.3
2017-02-26T09:28:18.734Z,68.02
2017-02-26T09:29:18.736Z,67.64
2017-02-26T09:30:18.715Z,67.77
2017-02-26T09:31:18.707Z,67.93
2017-02-26T09:32:18.712Z,67.29
2017-02-26T09:33:18.702Z,67.48
2017-02-26T09:34:18.698Z,67.48
2017-02-26T09:35:18.688Z,67.58
2017-02-26T09:36:18.671Z,67.1
2017-02-26T09:37:18.663Z,66.63
2017-02-26T09:38:18.658Z,65.67
2017-02-26T09:39:18.648Z,65.67
2017-02-26T09:40:18.644Z,65.39
2017-02-26T09:41:18.641Z,65.67
2017-02-26T09:42:18.632Z,66.15
2017-02-26T09:43:18.240Z,65.67
2017-02-26T09:44:18.615Z,65.77
2017-02-26T09:45:18.604Z,66.63
2017-02-26T09:46:18.607Z,67
2017-02-26T09:47:18.591Z,67
2017-02-26T09:48:18.205Z,66.63
2017-02-26T09:49:18.588Z,66.34
2017-02-26T09:50:18.568Z,66.72
2017-02-26T09:51:18.563Z,66.63
2017-02-26T09:52:18.573Z,66.53
2017-02-26T09:53:18.552Z,67
2017-02-26T09:54:18.541Z,67.2
2017-02-26T09:55:18.155Z,67.1
2017-02-26T09:56:18.525Z,66.82
2017-02-26T09:57:18.520Z,66.15
2017-02-26T09:58:18.513Z,65.96
2017-02-26T09:59:18.507Z,65.67
2017-02-26T10:00:18.510Z,65.67
2017-02-26T10:01:18.493Z,65.33
2017-02-26T10:02:18.488Z,65.04
2017-02-26T10:03:18.477Z,64.28
2017-02-26T10:04:18.476Z,64.05
2017-02-26T10:05:18.465Z,64.53
2017-02-26T10:06:18.458Z,64.43
2017-02-26T10:07:18.451Z,64.81
2017-02-26T10:08:18.445Z,65.29
2017-02-26T10:09:18.440Z,64.81
2017-02-26T10:10:18.448Z,64.72
2017-02-26T10:11:18.425Z,65.48
2017-02-26T10:12:18.427Z,64.81
2017-02-26T10:13:18.022Z,65.48
2017-02-26T10:14:18.400Z,65.48
2017-02-26T10:15:18.393Z,65.48
2017-02-26T10:16:18.388Z,65.39
2017-02-26T10:17:18.381Z,65.29
2017-02-26T10:18:18.372Z,65.77
2017-02-26T10:19:18.365Z,64.91
2017-02-26T10:20:18.359Z,64.81
2017-02-26T10:21:18.353Z,64.91
2017-02-26T10:22:18.350Z,65.29
2017-02-26T10:23:18.341Z,65.1
2017-02-26T10:24:18.336Z,64.53
2017-02-26T10:25:18.322Z,64.24
2017-02-26T10:26:18.328Z,63.67
2017-02-26T10:27:18.307Z,63.39
2017-02-26T10:28:18.302Z,63.29
2017-02-26T10:29:18.297Z,63.86
2017-02-26T10:30:18.289Z,63.57
2017-02-26T10:31:18.289Z,63.48
2017-02-26T10:32:18.273Z,63.29
2017-02-26T10:33:18.268Z,63.42
2017-02-26T10:34:18.257Z,63.1
2017-02-26T10:35:18.252Z,63.04
2017-02-26T10:36:18.243Z,63.13
2017-02-26T10:37:18.238Z,63.04
2017-02-26T10:38:18.231Z,63.04
2017-02-26T10:39:18.230Z,63.13
2017-02-26T10:40:18.218Z,62.46
2017-02-26T10:41:18.211Z,62.37
2017-02-26T10:42:18.204Z,62.94
2017-02-26T10:43:18.196Z,62.56
2017-02-26T10:44:18.194Z,61.89
2017-02-26T10:45:18.183Z,62.37
2017-02-26T10:46:18.175Z,62.27
2017-02-26T10:47:18.169Z,61.41
2017-02-26T10:48:18.165Z,61.89
2017-02-26T10:49:18.158Z,61.51
2017-02-26T10:50:18.152Z,61.22
2017-02-26T10:51:17.759Z,61.22
2017-02-26T10:52:18.135Z,61.41
2017-02-26T10:53:18.137Z,61.41
2017-02-26T10:54:18.125Z,61.6
2017-02-26T10:55:18.122Z,60.84
2017-02-26T10:56:18.109Z,60.27
2017-02-26T10:57:18.102Z,59.89
2017-02-26T10:58:18.096Z,60.11
2017-02-26T10:59:18.090Z,59.82
2017-02-26T11:00:18.084Z,59.44
2017-02-26T11:01:18.084Z,59.44
2017-02-26T11:02:18.079Z,59.25
2017-02-26T11:03:18.064Z,58.87
2017-02-26T11:04:18.069Z,59.53
2017-02-26T11:05:18.049Z,58.87
2017-02-26T11:06:18.053Z,58.77
2017-02-26T11:07:18.037Z,58.77
2017-02-26T11:08:18.039Z,58.77
2017-02-26T11:09:18.043Z,58.97
2017-02-26T11:10:18.034Z,58.68
2017-02-26T11:11:18.036Z,58.77
2017-02-26T11:12:18.009Z,59.12
2017-02-26T11:13:18.003Z,59.12
2017-02-26T11:14:17.992Z,59.6
2017-02-26T11:15:17.995Z,59.51
2017-02-26T11:16:17.982Z,59.06
2017-02-26T11:17:17.982Z,58.97
2017-02-26T11:18:18.000Z,58.77
2017-02-26T11:19:17.963Z,58.48
2017-02-26T11:20:17.967Z,58.68
2017-02-26T11:21:17.947Z,58.77
2017-02-26T11:22:17.989Z,58.68
2017-02-26T11:23:17.936Z,58.77
2017-02-26T11:24:17.929Z,57.53
2017-02-26T11:25:17.934Z,57.82
2017-02-26T11:26:17.926Z,58.11
2017-02-26T11:27:17.909Z,57.72
2017-02-26T11:28:17.927Z,58.01
2017-02-26T11:29:17.900Z,58.01
2017-02-26T11:30:17.894Z,57.63
2017-02-26T11:31:17.883Z,57.82
2017-02-26T11:32:17.881Z,58.2
2017-02-26T11:33:17.876Z,58.01
2017-02-26T11:34:17.872Z,57.43
2017-02-26T11:35:17.862Z,57.43
2017-02-26T11:36:17.854Z,57.92
2017-02-26T11:37:17.848Z,58.39
2017-02-26T11:38:17.844Z,58.58
2017-02-26T11:39:17.839Z,58.87
2017-02-26T11:40:17.843Z,59.06
2017-02-26T11:41:17.826Z,58.2
2017-02-26T11:42:17.825Z,58.29
2017-02-26T11:43:17.423Z,58.48
2017-02-26T11:44:17.809Z,58.01
2017-02-26T11:45:17.799Z,57.92
2017-02-26T11:46:17.790Z,58.29
2017-02-26T11:47:17.793Z,57.63
2017-02-26T11:48:17.778Z,57.72
2017-02-26T11:49:17.773Z,57.53
2017-02-26T11:50:17.785Z,57.92
2017-02-26T11:51:17.771Z,57.24
2017-02-26T11:52:17.755Z,56.96
2017-02-26T11:53:17.747Z,56.96
2017-02-26T11:54:17.740Z,57.28
2017-02-26T11:55:17.757Z,57.28
2017-02-26T11:56:17.731Z,56.99
2017-02-26T11:57:17.722Z,56.32
2017-02-26T11:58:17.720Z,56.51
2017-02-26T11:59:17.718Z,56.23
2017-02-26T12:00:17.709Z,56.32
2017-02-26T12:01:17.704Z,56.32
2017-02-26T12:02:17.694Z,56.8
2017-02-26T12:03:17.688Z,56.89
2017-02-26T12:04:17.685Z,57.37
2017-02-26T12:05:17.690Z,56.51
2017-02-26T12:06:17.674Z,56.23
2017-02-26T12:07:17.665Z,56.13
2017-02-26T12:08:17.667Z,55.68
2017-02-26T12:09:17.653Z,56.06
2017-02-26T12:10:17.648Z,55.77
2017-02-26T12:11:17.642Z,55.87
2017-02-26T12:12:17.636Z,55.3
2017-02-26T12:13:17.646Z,55.49
2017-02-26T12:14:17.239Z,55.68
2017-02-26T12:15:17.619Z,55.49
2017-02-26T12:16:17.614Z,55.01
2017-02-26T12:17:17.609Z,55.01
2017-02-26T12:18:17.605Z,55.3
2017-02-26T12:19:17.600Z,55.58
2017-02-26T12:20:17.598Z,55.2
2017-02-26T12:21:17.588Z,55.58
2017-02-26T12:22:17.582Z,55.49
2017-02-26T12:23:17.578Z,55.3
2017-02-26T12:24:17.572Z,55.2
2017-02-26T12:25:17.571Z,55.11
2017-02-26T12:26:17.569Z,55.11
2017-02-26T12:27:17.558Z,55.04
2017-02-26T12:28:17.551Z,55.13
2017-02-26T12:29:17.546Z,55.04
2017-02-26T12:30:17.542Z,54.47
2017-02-26T12:31:17.546Z,54.47
2017-02-26T12:32:17.532Z,54.08
2017-02-26T12:33:17.526Z,53.89
2017-02-26T12:34:17.533Z,54.08
2017-02-26T12:35:17.516Z,53.99
2017-02-26T12:36:17.516Z,53.99
2017-02-26T12:37:17.508Z,53.99
2017-02-26T12:38:17.503Z,54.27
2017-02-26T12:39:17.496Z,54.37
2017-02-26T12:40:17.493Z,54.3
2017-02-26T12:41:17.504Z,54.02
2017-02-26T12:42:17.492Z,53.92
2017-02-26T12:43:17.479Z,53.73
2017-02-26T12:44:17.471Z,53.63
2017-02-26T12:45:17.466Z,53.53
2017-02-26T12:46:17.485Z,53.51
2017-02-26T12:47:17.470Z,53.99
2017-02-26T12:48:17.454Z,54.18
2017-02-26T12:49:17.448Z,54.47
2017-02-26T12:50:17.453Z,54.47
2017-02-26T12:51:17.451Z,54.21
2017-02-26T12:52:17.436Z,53.99
2017-02-26T12:53:17.434Z,53.89
2017-02-26T12:54:17.424Z,54.11
2017-02-26T12:55:17.419Z,54.11